Star Clipper — 9HA2513 — position and weather

sailwx.info

Track history (hours):
 
Tides and Currents Weather Stations Pressure Air Temp Water Temp Dewpoint Dewpoint Depression Visibility Wind Speed Wind Dir Waves Ship Positions

Star Clipper

Last reported at 2019-Mar-30 14:03 UTC. Time now 2019-Apr-26 03:42 UTC.
Position N 01°13' E 103°29'.
Warning: this ship's position is 26 days out of date.

Length 111 m; draft 5.9 m.

Type: Other ship. MMSI: 248786000.

Date/timePositionNaut miles runAvg speedWind from/ knotsBaromVisibWave heightAir tempDewpointWater temp
2019-Mar-30 14:03N 01°13' E 103°29'5 9.7
2019-Mar-30 13:34N 01°12' E 103°34'5 9.7
2019-Mar-30 13:03N 01°11' E 103°39'1 9.9
2019-Mar-30 12:57N 01°11' E 103°40'5 9.6
2019-Mar-30 12:27N 01°08' E 103°44'610.4
2019-Mar-30 11:51N 01°11' E 103°49'4 8.1
2019-Mar-30 11:21N 01°14' E 103°52'2 4.3
2019-Mar-30 10:57N 01°16' E 103°52'0 0.0
2019-Mar-30 10:15N 01°16' E 103°52'0 0.0
2019-Mar-30 09:57N 01°16' E 103°52'0 0.0
2019-Mar-30 09:21N 01°16' E 103°52'0 0.0
2019-Mar-30 08:39N 01°16' E 103°52'0 0.0
2019-Mar-30 08:21N 01°16' E 103°52'0 0.0
2019-Mar-30 07:51N 01°16' E 103°52'0 0.0
2019-Mar-30 07:27N 01°16' E 103°52'0 0.0
2019-Mar-30 06:57N 01°16' E 103°52'0 0.0
2019-Mar-30 06:21N 01°16' E 103°52'0 0.0
2019-Mar-30 05:57N 01°16' E 103°52'0 0.0
2019-Mar-30 05:27N 01°16' E 103°52'0 0.0
2019-Mar-30 04:57N 01°16' E 103°52'0 0.0
2019-Mar-30 04:27N 01°16' E 103°52'0 0.0
2019-Mar-30 03:51N 01°16' E 103°52'0 0.0
2019-Mar-30 03:09N 01°16' E 103°52'0 0.0
2019-Mar-30 02:51N 01°16' E 103°52'0 0.0
2019-Mar-30 02:27N 01°16' E 103°52'0 0.1
2019-Mar-30 01:51N 01°16' E 103°52'0 0.1
2019-Mar-30 01:27N 01°16' E 103°52'0 0.0
2019-Mar-30 00:45N 01°16' E 103°52'0 1.1
2019-Mar-30 00:27N 01°16' E 103°52'2 3.1
2019-Mar-29 23:57N 01°14' E 103°53'3 6.0
2019-Mar-29 23:27N 01°12' E 103°51'6 9.2
2019-Mar-29 22:51N 01°09' E 103°46'7 8.6
2019-Mar-29 22:03N 01°04' E 103°41'  
Track history (hours):
 
Tides and Currents Weather Stations Pressure Air Temp Water Temp Dewpoint Dewpoint Depression Visibility Wind Speed Wind Dir Waves Ship Positions

Star Clipper

Last reported at 2019-Mar-30 14:03 UTC. Time now 2019-Apr-26 03:42 UTC.
Position N 01°13' E 103°29'.
Warning: this ship's position is 26 days out of date.

Length 111 m; draft 5.9 m.

Type: Other ship. MMSI: 248786000.

Date/timePositionNaut miles runAvg speedWind from/ knotsBaromVisibWave heightAir tempDewpointWater temp
2019-Mar-30 14:03N 01°13' E 103°29'5 9.7
2019-Mar-30 13:34N 01°12' E 103°34'5 9.7
2019-Mar-30 13:03N 01°11' E 103°39'1 9.9
2019-Mar-30 12:57N 01°11' E 103°40'5 9.6
2019-Mar-30 12:27N 01°08' E 103°44'610.4
2019-Mar-30 11:51N 01°11' E 103°49'4 8.1
2019-Mar-30 11:21N 01°14' E 103°52'2 4.3
2019-Mar-30 10:57N 01°16' E 103°52'0 0.0
2019-Mar-30 10:15N 01°16' E 103°52'0 0.0
2019-Mar-30 09:57N 01°16' E 103°52'0 0.0
2019-Mar-30 09:21N 01°16' E 103°52'0 0.0
2019-Mar-30 08:39N 01°16' E 103°52'0 0.0
2019-Mar-30 08:21N 01°16' E 103°52'0 0.0
2019-Mar-30 07:51N 01°16' E 103°52'0 0.0
2019-Mar-30 07:27N 01°16' E 103°52'0 0.0
2019-Mar-30 06:57N 01°16' E 103°52'0 0.0
2019-Mar-30 06:21N 01°16' E 103°52'0 0.0
2019-Mar-30 05:57N 01°16' E 103°52'0 0.0
2019-Mar-30 05:27N 01°16' E 103°52'0 0.0
2019-Mar-30 04:57N 01°16' E 103°52'0 0.0
2019-Mar-30 04:27N 01°16' E 103°52'0 0.0
2019-Mar-30 03:51N 01°16' E 103°52'0 0.0
2019-Mar-30 03:09N 01°16' E 103°52'0 0.0
2019-Mar-30 02:51N 01°16' E 103°52'0 0.0
2019-Mar-30 02:27N 01°16' E 103°52'0 0.1
2019-Mar-30 01:51N 01°16' E 103°52'0 0.1
2019-Mar-30 01:27N 01°16' E 103°52'0 0.0
2019-Mar-30 00:45N 01°16' E 103°52'0 1.1
2019-Mar-30 00:27N 01°16' E 103°52'2 3.1
2019-Mar-29 23:57N 01°14' E 103°53'3 6.0
2019-Mar-29 23:27N 01°12' E 103°51'6 9.2
2019-Mar-29 22:51N 01°09' E 103°46'7 8.6
2019-Mar-29 22:03N 01°04' E 103°41'  

Dump ship's entire track history